Terminal Aerodrome Forecast
Issued by NWS Wilmington, NC

Home | Current Version | Previous Version | Text Only | Print | Product List | Glossary On
Versions: 1 2 3 4 5 6 7 8 9 10 11 12 13 14 15 16 17 18
000
FTUS42 KILM 171700
TAFMYR
TAF
KMYR 171722Z 1718/1818 01010KT P6SM SCT040
     FM180200 03009KT P6SM BKN030 BKN060
     FM180800 04010KT P6SM SCT009 BKN045
     FM181300 05012KT P6SM BKN035 BKN080=

USA.gov is the U.S. government's official web portal to all federal, state and local government web resources and services.